createdAt,value
2022-11-29T00:01:43.018Z,82.13
2022-11-29T00:04:10.881Z,82.16
2022-11-29T00:06:39.258Z,82.10
2022-11-29T00:09:11.568Z,82.08
2022-11-29T00:11:58.200Z,82.35
2022-11-29T00:14:26.819Z,82.78
2022-11-29T00:16:56.715Z,82.56
2022-11-29T00:19:24.386Z,82.71
2022-11-29T00:21:51.980Z,83.02
2022-11-29T00:24:19.754Z,83.33
2022-11-29T00:26:48.824Z,83.70
2022-11-29T00:29:16.465Z,83.65
2022-11-29T00:31:44.729Z,83.46
2022-11-29T00:34:12.903Z,83.53
2022-11-29T00:36:41.020Z,83.32
2022-11-29T00:39:11.660Z,83.77
2022-11-29T00:41:39.825Z,84.10
2022-11-29T00:44:09.157Z,84.15
2022-11-29T00:46:36.901Z,83.92
2022-11-29T00:49:04.660Z,84.08
2022-11-29T00:51:32.494Z,83.97
2022-11-29T00:54:00.105Z,83.84
2022-11-29T00:56:27.934Z,84.06
2022-11-29T00:58:55.574Z,84.05
2022-11-29T01:01:24.656Z,84.21
2022-11-29T01:03:52.340Z,84.40
2022-11-29T01:06:20.401Z,84.35
2022-11-29T01:08:48.184Z,84.17
2022-11-29T01:11:19.823Z,83.65
2022-11-29T01:13:47.834Z,83.69
2022-11-29T01:16:16.316Z,83.60
2022-11-29T01:18:45.423Z,83.53
2022-11-29T01:21:14.635Z,83.97
2022-11-29T01:23:42.912Z,84.40
2022-11-29T01:26:13.640Z,84.13
2022-11-29T01:28:42.486Z,84.70
2022-11-29T01:31:12.210Z,85.37
2022-11-29T01:33:40.049Z,85.37
2022-11-29T01:36:10.438Z,85.66
2022-11-29T01:38:38.059Z,85.80
2022-11-29T01:41:08.511Z,85.76
2022-11-29T01:43:55.208Z,86.15
2022-11-29T01:46:22.980Z,86.04
2022-11-29T01:48:51.430Z,86.22
2022-11-29T01:51:20.439Z,85.80
2022-11-29T01:53:48.216Z,86.05
2022-11-29T01:56:16.736Z,85.99
2022-11-29T01:58:45.375Z,86.22
2022-11-29T02:01:13.134Z,85.51
2022-11-29T02:03:40.878Z,85.55
2022-11-29T02:06:08.987Z,85.57
2022-11-29T02:08:40.822Z,85.14
2022-11-29T02:11:26.025Z,84.86
2022-11-29T02:13:58.759Z,85.26
2022-11-29T02:16:31.718Z,85.16
2022-11-29T02:19:04.949Z,85.00
2022-11-29T02:21:37.656Z,84.37
2022-11-29T02:24:43.933Z,84.26
2022-11-29T02:27:59.840Z,84.49
2022-11-29T02:30:55.994Z,84.06
2022-11-29T02:33:54.265Z,84.22
2022-11-29T02:36:35.171Z,84.68
2022-11-29T02:39:15.834Z,85.03
2022-11-29T02:41:58.862Z,85.37
2022-11-29T02:44:48.505Z,85.48
2022-11-29T02:47:23.603Z,85.60
2022-11-29T02:50:10.281Z,85.46
2022-11-29T02:52:43.065Z,85.82
2022-11-29T02:55:16.422Z,85.97
2022-11-29T02:57:48.257Z,86.40
2022-11-29T03:00:19.031Z,86.05
2022-11-29T03:02:51.782Z,86.22
2022-11-29T03:05:25.020Z,86.10
2022-11-29T03:07:57.218Z,86.34
2022-11-29T03:10:32.625Z,86.12
2022-11-29T03:13:01.092Z,86.61
2022-11-29T03:15:30.884Z,86.38
2022-11-29T03:18:04.543Z,86.83
2022-11-29T03:20:40.322Z,86.77
2022-11-29T03:23:26.788Z,86.61
2022-11-29T03:25:59.131Z,86.63
2022-11-29T03:28:30.817Z,86.66
2022-11-29T03:31:02.994Z,86.77
2022-11-29T03:33:36.236Z,86.84
2022-11-29T03:36:09.476Z,87.02
2022-11-29T03:38:42.143Z,87.11
2022-11-29T03:41:18.325Z,86.66
2022-11-29T03:43:49.048Z,86.49
2022-11-29T03:46:24.934Z,85.94
2022-11-29T03:48:55.134Z,86.04
2022-11-29T03:51:29.366Z,85.92
2022-11-29T03:54:01.215Z,85.83
2022-11-29T03:56:31.659Z,86.15
2022-11-29T03:59:08.117Z,86.36
2022-11-29T04:01:56.981Z,86.45
2022-11-29T04:04:50.478Z,85.81
2022-11-29T04:07:33.821Z,85.91
2022-11-29T04:10:12.922Z,86.07
2022-11-29T04:13:08.070Z,86.44
2022-11-29T04:16:14.486Z,86.33
2022-11-29T04:19:01.106Z,86.30
2022-11-29T04:21:33.581Z,86.89
2022-11-29T04:24:14.562Z,87.00
2022-11-29T04:27:05.512Z,86.94
2022-11-29T04:29:56.636Z,86.79
2022-11-29T04:32:57.742Z,86.59
2022-11-29T04:35:39.710Z,86.48
2022-11-29T04:38:17.322Z,86.33
2022-11-29T04:40:57.163Z,86.47
2022-11-29T04:43:47.133Z,86.72
2022-11-29T04:46:36.802Z,86.82
2022-11-29T04:49:18.364Z,86.75
2022-11-29T04:52:01.852Z,86.59
2022-11-29T04:54:32.587Z,86.51
2022-11-29T04:57:07.310Z,86.61
2022-11-29T04:59:40.704Z,86.66
2022-11-29T05:02:15.226Z,86.22
2022-11-29T05:04:50.829Z,86.04
2022-11-29T05:07:26.520Z,86.24
2022-11-29T05:10:01.164Z,86.11
2022-11-29T05:12:34.352Z,85.90
2022-11-29T05:15:25.176Z,85.46
2022-11-29T05:17:57.945Z,85.78
2022-11-29T05:20:35.675Z,85.68
2022-11-29T05:23:17.543Z,85.64
2022-11-29T05:25:48.539Z,85.16
2022-11-29T05:28:22.309Z,85.64
2022-11-29T05:31:09.366Z,85.69
2022-11-29T05:33:58.843Z,86.04
2022-11-29T05:36:34.495Z,85.78
2022-11-29T05:39:12.924Z,85.85
2022-11-29T05:41:49.618Z,85.48
2022-11-29T05:44:25.060Z,85.76
2022-11-29T05:46:56.225Z,85.81
2022-11-29T05:49:32.082Z,85.66
2022-11-29T05:52:14.791Z,85.79
2022-11-29T05:54:46.031Z,85.56
2022-11-29T05:57:18.468Z,85.76
2022-11-29T05:59:48.413Z,85.85
2022-11-29T06:02:29.080Z,85.80
2022-11-29T06:05:06.546Z,85.63
2022-11-29T06:07:39.794Z,85.23
2022-11-29T06:10:12.082Z,85.56
2022-11-29T06:12:40.438Z,85.50
2022-11-29T06:15:38.580Z,85.32
2022-11-29T06:18:23.530Z,85.33
2022-11-29T06:21:01.880Z,85.56
2022-11-29T06:23:53.614Z,84.97
2022-11-29T06:26:37.513Z,84.91
2022-11-29T06:29:25.468Z,84.98
2022-11-29T06:31:58.295Z,85.00
2022-11-29T06:34:31.560Z,84.50
2022-11-29T06:37:03.374Z,85.00
2022-11-29T06:39:31.557Z,84.98
2022-11-29T06:41:59.139Z,85.37
2022-11-29T06:44:27.370Z,85.34
2022-11-29T06:47:02.015Z,85.03
2022-11-29T06:49:31.872Z,84.98
2022-11-29T06:52:08.821Z,85.16
2022-11-29T06:54:49.578Z,85.03
2022-11-29T06:57:21.786Z,84.94
2022-11-29T07:00:00.039Z,84.17
2022-11-29T07:02:42.528Z,84.10
2022-11-29T07:05:15.398Z,84.10
2022-11-29T07:07:43.527Z,84.43
2022-11-29T07:10:18.106Z,85.00
2022-11-29T07:12:46.868Z,84.98
2022-11-29T07:15:16.433Z,85.02
2022-11-29T07:17:54.556Z,84.63
2022-11-29T07:20:26.059Z,85.06
2022-11-29T07:23:01.045Z,85.30
2022-11-29T07:25:36.863Z,85.16
2022-11-29T07:28:13.664Z,85.12
2022-11-29T07:30:46.840Z,85.16
2022-11-29T07:33:21.700Z,85.45
2022-11-29T07:35:53.066Z,85.65
2022-11-29T07:38:26.545Z,85.23
2022-11-29T07:41:00.433Z,84.93
2022-11-29T07:43:36.930Z,84.67
2022-11-29T07:46:04.642Z,84.72
2022-11-29T07:48:33.759Z,84.83
2022-11-29T07:51:01.938Z,85.00
2022-11-29T07:53:30.296Z,84.86
2022-11-29T07:55:58.618Z,84.66
2022-11-29T07:58:26.291Z,84.67
2022-11-29T08:00:53.985Z,85.22
2022-11-29T08:03:21.686Z,84.85
2022-11-29T08:05:50.666Z,84.35
2022-11-29T08:08:18.305Z,84.22
2022-11-29T08:10:46.230Z,84.41
2022-11-29T08:13:14.008Z,84.47
2022-11-29T08:15:45.161Z,84.45
2022-11-29T08:18:12.801Z,84.05
2022-11-29T08:20:41.653Z,83.73
2022-11-29T08:23:13.265Z,83.44
2022-11-29T08:25:41.272Z,82.88
2022-11-29T08:28:08.941Z,83.02
2022-11-29T08:30:36.567Z,83.08
2022-11-29T08:33:04.494Z,83.53
2022-11-29T08:35:32.146Z,83.36
2022-11-29T08:37:59.754Z,83.12
2022-11-29T08:40:28.725Z,82.47
2022-11-29T08:42:58.368Z,82.75
2022-11-29T08:45:26.060Z,83.59
2022-11-29T08:47:53.656Z,83.80
2022-11-29T08:50:21.343Z,83.10
2022-11-29T08:53:07.869Z,83.11
2022-11-29T08:55:39.819Z,83.20
2022-11-29T08:58:09.250Z,83.52
2022-11-29T09:00:37.057Z,83.06
2022-11-29T09:03:23.403Z,83.20
2022-11-29T09:05:51.136Z,83.28
2022-11-29T09:08:18.828Z,83.04
2022-11-29T09:10:48.042Z,83.12
2022-11-29T09:13:16.034Z,83.13
2022-11-29T09:15:43.771Z,82.89
2022-11-29T09:18:11.659Z,82.90
2022-11-29T09:20:39.314Z,82.54
2022-11-29T09:23:06.899Z,82.55
2022-11-29T09:25:34.567Z,82.38
2022-11-29T09:28:03.531Z,82.28
2022-11-29T09:30:31.636Z,82.17
2022-11-29T09:33:00.682Z,82.46
2022-11-29T09:35:28.270Z,82.27
2022-11-29T09:37:55.921Z,82.15
2022-11-29T09:40:28.612Z,82.73
2022-11-29T09:43:01.295Z,82.31
2022-11-29T09:45:34.013Z,82.65
2022-11-29T09:48:20.319Z,82.48
2022-11-29T09:50:49.611Z,82.92
2022-11-29T09:53:27.056Z,82.17
2022-11-29T09:56:03.422Z,81.45
2022-11-29T09:58:33.259Z,81.10
2022-11-29T10:01:06.614Z,81.59
2022-11-29T10:03:36.580Z,81.53
2022-11-29T10:06:08.337Z,81.64
2022-11-29T10:08:37.944Z,82.00
2022-11-29T10:11:17.850Z,82.26
2022-11-29T10:13:49.522Z,81.72
2022-11-29T10:16:24.889Z,81.78
2022-11-29T10:18:55.785Z,81.80
2022-11-29T10:21:27.589Z,82.07
2022-11-29T10:23:57.179Z,81.80
2022-11-29T10:26:26.497Z,81.50
2022-11-29T10:28:57.653Z,81.52
2022-11-29T10:31:29.117Z,81.47
2022-11-29T10:33:57.711Z,81.27
2022-11-29T10:36:28.894Z,81.54
2022-11-29T10:38:58.932Z,81.51
2022-11-29T10:41:27.220Z,81.72
2022-11-29T10:43:57.784Z,81.33
2022-11-29T10:46:30.638Z,81.54
2022-11-29T10:48:59.959Z,81.78
2022-11-29T10:51:27.729Z,81.72
2022-11-29T10:53:55.649Z,81.86
2022-11-29T10:56:27.486Z,81.79
2022-11-29T10:58:58.393Z,81.59
2022-11-29T11:01:29.168Z,81.40
2022-11-29T11:03:58.794Z,81.35
2022-11-29T11:06:28.009Z,81.47
2022-11-29T11:08:57.219Z,81.59
2022-11-29T11:11:27.026Z,81.67
2022-11-29T11:14:02.121Z,81.94
2022-11-29T11:16:35.726Z,81.22
2022-11-29T11:19:27.588Z,81.17
2022-11-29T11:21:55.525Z,80.93
2022-11-29T11:24:26.405Z,80.86
2022-11-29T11:26:54.036Z,80.74
2022-11-29T11:29:24.320Z,80.81
2022-11-29T11:31:56.052Z,81.29
2022-11-29T11:34:29.719Z,81.28
2022-11-29T11:37:19.518Z,80.97
2022-11-29T11:39:48.747Z,80.88
2022-11-29T11:42:36.196Z,81.24
2022-11-29T11:45:05.163Z,81.86
2022-11-29T11:47:36.994Z,81.83
2022-11-29T11:50:11.704Z,81.61
2022-11-29T11:52:48.749Z,81.28
2022-11-29T11:55:28.894Z,80.70
2022-11-29T11:58:07.841Z,80.80
2022-11-29T12:03:37.104Z,80.53
2022-11-29T12:06:24.037Z,80.42
2022-11-29T12:08:52.378Z,80.41
2022-11-29T12:11:21.181Z,80.57
2022-11-29T12:13:52.208Z,80.76
2022-11-29T12:16:27.368Z,80.77
2022-11-29T12:19:00.545Z,80.79
2022-11-29T12:21:33.334Z,80.45
2022-11-29T12:24:05.596Z,80.86
2022-11-29T12:26:56.471Z,80.75
2022-11-29T12:29:23.646Z,81.10
2022-11-29T12:32:01.819Z,80.64
2022-11-29T12:34:45.901Z,80.93
2022-11-29T12:37:20.243Z,81.10
2022-11-29T12:39:58.095Z,80.96
2022-11-29T12:42:35.908Z,80.81
2022-11-29T12:45:16.566Z,80.28
2022-11-29T12:47:51.928Z,79.89
2022-11-29T12:50:37.259Z,80.43
2022-11-29T12:53:16.368Z,80.26
2022-11-29T12:55:49.986Z,80.18
2022-11-29T12:58:24.816Z,80.24
2022-11-29T13:01:00.191Z,79.78
2022-11-29T13:03:31.127Z,79.81
2022-11-29T13:06:09.086Z,80.18
2022-11-29T13:08:52.597Z,80.34
2022-11-29T13:11:23.856Z,80.88
2022-11-29T13:14:08.308Z,80.98
2022-11-29T13:16:50.671Z,80.80
2022-11-29T13:19:22.975Z,81.10
2022-11-29T13:21:56.685Z,81.17
2022-11-29T13:24:26.866Z,81.52
2022-11-29T13:26:55.296Z,81.46
2022-11-29T13:29:23.146Z,81.44
2022-11-29T13:31:51.155Z,81.08
2022-11-29T13:34:22.823Z,81.34
2022-11-29T13:37:00.791Z,81.19
2022-11-29T13:39:36.858Z,81.36
2022-11-29T13:42:08.772Z,81.21
2022-11-29T13:44:40.504Z,80.83
2022-11-29T13:47:09.981Z,81.03
2022-11-29T13:49:52.724Z,80.94
2022-11-29T13:52:30.419Z,80.33
2022-11-29T13:55:23.435Z,80.15
2022-11-29T13:58:15.691Z,80.00
2022-11-29T14:00:50.409Z,80.55
2022-11-29T14:03:38.338Z,80.75
2022-11-29T14:06:10.681Z,81.28
2022-11-29T14:09:17.181Z,81.38
2022-11-29T14:11:32.822Z,81.15
2022-11-29T14:14:03.472Z,81.41
2022-11-29T14:16:33.495Z,81.49
2022-11-29T14:19:08.046Z,80.96
2022-11-29T14:22:11.606Z,81.05
2022-11-29T14:24:42.197Z,80.75
2022-11-29T14:28:01.674Z,80.66
2022-11-29T14:30:31.796Z,81.25
2022-11-29T14:33:02.914Z,81.18
2022-11-29T14:35:33.558Z,81.25
2022-11-29T14:38:06.893Z,81.29
2022-11-29T14:40:43.904Z,80.94
2022-11-29T14:43:20.509Z,80.52
2022-11-29T14:45:48.227Z,80.48
2022-11-29T14:48:26.505Z,80.06
2022-11-29T14:51:08.641Z,80.26
2022-11-29T14:53:38.205Z,81.04
2022-11-29T14:56:45.465Z,81.09
2022-11-29T14:59:39.576Z,81.13
2022-11-29T15:02:08.807Z,81.32
2022-11-29T15:04:37.106Z,81.43
2022-11-29T15:07:05.706Z,81.84
2022-11-29T15:09:34.821Z,81.56
2022-11-29T15:12:09.189Z,81.37
2022-11-29T15:14:44.891Z,81.27
2022-11-29T15:17:21.206Z,81.24
2022-11-29T15:20:33.717Z,81.15
2022-11-29T15:23:03.016Z,81.11
2022-11-29T15:25:32.364Z,81.00
2022-11-29T15:28:03.317Z,81.26
2022-11-29T15:30:34.546Z,81.16
2022-11-29T15:33:05.094Z,81.08
2022-11-29T15:35:34.165Z,80.94
2022-11-29T15:38:01.982Z,81.08
2022-11-29T15:40:35.420Z,81.20
2022-11-29T15:43:16.838Z,81.61
2022-11-29T15:45:48.936Z,81.45
2022-11-29T15:48:22.283Z,81.33
2022-11-29T15:51:01.906Z,81.16
2022-11-29T15:53:35.530Z,81.13
2022-11-29T15:56:05.154Z,81.33
2022-11-29T15:58:34.664Z,80.88
2022-11-29T16:01:02.730Z,80.45
2022-11-29T16:03:32.052Z,81.04
2022-11-29T16:06:06.997Z,80.98
2022-11-29T16:08:37.755Z,80.69
2022-11-29T16:11:06.807Z,80.29
2022-11-29T16:13:38.184Z,80.82
2022-11-29T16:16:08.696Z,80.67
2022-11-29T16:18:36.728Z,80.44
2022-11-29T16:21:06.751Z,80.88
2022-11-29T16:23:34.907Z,80.52
2022-11-29T16:26:12.682Z,80.83
2022-11-29T16:28:45.012Z,81.19
2022-11-29T16:31:18.094Z,81.38
2022-11-29T16:33:47.556Z,81.50
2022-11-29T16:36:17.062Z,81.31
2022-11-29T16:38:46.951Z,81.40
2022-11-29T16:41:23.558Z,81.49
2022-11-29T16:43:55.376Z,81.34
2022-11-29T16:46:34.384Z,81.59
2022-11-29T16:49:03.676Z,81.63
2022-11-29T16:51:39.688Z,81.23
2022-11-29T16:54:21.722Z,81.32
2022-11-29T16:56:49.804Z,80.62
2022-11-29T16:59:27.583Z,80.57
2022-11-29T17:01:56.376Z,80.02
2022-11-29T17:04:24.886Z,79.79
2022-11-29T17:06:53.281Z,79.42
2022-11-29T17:09:24.143Z,79.63
2022-11-29T17:11:51.854Z,79.74
2022-11-29T17:14:20.934Z,79.51
2022-11-29T17:16:50.361Z,79.56
2022-11-29T17:19:20.454Z,80.01
2022-11-29T17:21:48.522Z,79.92
2022-11-29T17:24:17.877Z,80.08
2022-11-29T17:26:46.141Z,79.92
2022-11-29T17:29:15.045Z,79.92
2022-11-29T17:31:45.601Z,79.88
2022-11-29T17:34:14.119Z,80.56
2022-11-29T17:36:41.741Z,81.10
2022-11-29T17:39:09.583Z,81.71
2022-11-29T17:41:37.289Z,81.87
2022-11-29T17:44:05.729Z,81.88
2022-11-29T17:46:35.218Z,81.71
2022-11-29T17:49:05.607Z,81.47
2022-11-29T17:54:22.089Z,80.75
2022-11-29T17:56:50.111Z,80.31
2022-11-29T17:59:17.845Z,80.25
2022-11-29T18:01:46.849Z,80.23
2022-11-29T18:04:16.282Z,80.35
2022-11-29T18:06:50.035Z,80.33
2022-11-29T18:09:19.344Z,80.05
2022-11-29T18:11:49.335Z,79.81
2022-11-29T18:14:19.282Z,79.73
2022-11-29T18:16:47.030Z,79.60
2022-11-29T18:19:17.453Z,79.63
2022-11-29T18:21:45.754Z,80.14
2022-11-29T18:24:13.596Z,81.54
2022-11-29T18:26:41.895Z,81.87
2022-11-29T18:29:10.416Z,81.98
2022-11-29T18:31:40.215Z,82.09
2022-11-29T18:34:09.666Z,81.78
2022-11-29T18:36:40.366Z,82.17
2022-11-29T18:39:09.693Z,82.03
2022-11-29T18:41:37.963Z,82.05
2022-11-29T18:44:07.820Z,81.97
2022-11-29T18:46:37.109Z,81.50
2022-11-29T18:49:05.681Z,81.38
2022-11-29T18:51:34.135Z,81.28
2022-11-29T18:54:03.426Z,81.32
2022-11-29T18:56:34.228Z,81.34
2022-11-29T18:59:03.877Z,81.13
2022-11-29T19:01:34.716Z,80.68
2022-11-29T19:04:02.663Z,80.61
2022-11-29T19:06:38.906Z,80.60
2022-11-29T19:09:12.591Z,80.90
2022-11-29T19:11:40.754Z,80.71
2022-11-29T19:14:11.356Z,81.00
2022-11-29T19:16:41.198Z,80.97
2022-11-29T19:19:08.924Z,80.75
2022-11-29T19:21:36.684Z,80.83
2022-11-29T19:24:07.601Z,80.79
2022-11-29T19:26:36.633Z,80.85
2022-11-29T19:29:04.262Z,80.88
2022-11-29T19:31:32.139Z,80.76
2022-11-29T19:33:59.765Z,80.96
2022-11-29T19:36:29.162Z,81.71
2022-11-29T19:38:57.520Z,82.63
2022-11-29T19:41:26.531Z,82.88
2022-11-29T19:43:57.088Z,83.01
2022-11-29T19:46:26.226Z,83.05
2022-11-29T19:48:54.568Z,83.18
2022-11-29T19:51:22.542Z,82.86
2022-11-29T19:53:53.401Z,83.06
2022-11-29T19:56:21.367Z,82.77
2022-11-29T19:58:49.586Z,82.73
2022-11-29T20:01:20.819Z,82.44
2022-11-29T20:03:48.535Z,82.07
2022-11-29T20:06:17.245Z,82.54
2022-11-29T20:08:45.187Z,82.25
2022-11-29T20:11:16.778Z,82.28
2022-11-29T20:13:46.480Z,82.00
2022-11-29T20:16:15.853Z,81.91
2022-11-29T20:18:50.615Z,82.19
2022-11-29T20:21:21.386Z,82.26
2022-11-29T20:23:49.273Z,82.14
2022-11-29T20:26:18.372Z,82.12
2022-11-29T20:28:47.350Z,81.82
2022-11-29T20:31:16.708Z,81.68
2022-11-29T20:33:49.632Z,81.52
2022-11-29T20:36:24.857Z,81.50
2022-11-29T20:38:59.261Z,81.04
2022-11-29T20:41:32.783Z,81.15
2022-11-29T20:44:03.679Z,81.09
2022-11-29T20:46:31.873Z,81.10
2022-11-29T20:49:06.363Z,81.04
2022-11-29T20:51:38.094Z,80.85
2022-11-29T20:54:06.457Z,80.93
2022-11-29T20:56:37.422Z,80.84
2022-11-29T20:59:05.084Z,80.85
2022-11-29T21:01:32.733Z,80.78
2022-11-29T21:04:01.935Z,80.85
2022-11-29T21:06:29.707Z,81.08
2022-11-29T21:08:58.667Z,80.94
2022-11-29T21:11:26.878Z,81.13
2022-11-29T21:13:55.256Z,81.27
2022-11-29T21:16:28.474Z,81.19
2022-11-29T21:18:58.282Z,81.24
2022-11-29T21:21:31.682Z,81.17
2022-11-29T21:24:05.212Z,80.57
2022-11-29T21:26:40.176Z,80.55
2022-11-29T21:29:15.646Z,80.70
2022-11-29T21:31:43.807Z,80.34
2022-11-29T21:34:11.693Z,80.50
2022-11-29T21:36:41.229Z,80.30
2022-11-29T21:39:12.256Z,80.55
2022-11-29T21:41:40.205Z,80.31
2022-11-29T21:44:08.445Z,80.15
2022-11-29T21:46:36.681Z,80.04
2022-11-29T21:49:04.876Z,80.17
2022-11-29T21:51:32.591Z,79.96
2022-11-29T21:54:02.154Z,79.79
2022-11-29T21:56:29.859Z,79.67
2022-11-29T21:58:57.485Z,80.00
2022-11-29T22:01:27.151Z,79.92
2022-11-29T22:03:55.448Z,80.16
2022-11-29T22:06:24.118Z,80.04
2022-11-29T22:08:51.796Z,80.11
2022-11-29T22:11:31.407Z,80.18
2022-11-29T22:14:14.829Z,80.09
2022-11-29T22:16:43.705Z,79.98
2022-11-29T22:19:13.225Z,79.96
2022-11-29T22:21:41.281Z,79.59
2022-11-29T22:24:09.351Z,79.48
2022-11-29T22:26:39.350Z,79.34
2022-11-29T22:29:07.362Z,79.50
2022-11-29T22:31:36.060Z,79.48
2022-11-29T22:34:04.090Z,79.21
2022-11-29T22:36:31.750Z,79.21
2022-11-29T22:38:59.505Z,79.56
2022-11-29T22:41:27.138Z,79.31
2022-11-29T22:43:56.320Z,79.62
2022-11-29T22:46:25.502Z,79.47
2022-11-29T22:48:55.497Z,80.23
2022-11-29T22:51:24.348Z,81.19
2022-11-29T22:53:53.356Z,81.71
2022-11-29T22:56:21.868Z,82.16
2022-11-29T22:58:49.817Z,82.76
2022-11-29T23:01:19.911Z,82.60
2022-11-29T23:03:49.060Z,82.72
2022-11-29T23:06:18.406Z,82.24
2022-11-29T23:08:46.898Z,81.41
2022-11-29T23:11:16.968Z,81.30
2022-11-29T23:13:45.074Z,81.67
2022-11-29T23:16:14.428Z,82.07
2022-11-29T23:18:45.525Z,82.14
2022-11-29T23:21:15.143Z,82.05
2022-11-29T23:23:43.490Z,81.56
2022-11-29T23:26:17.957Z,81.19
2022-11-29T23:28:45.594Z,80.93
2022-11-29T23:31:13.489Z,80.48
2022-11-29T23:33:41.281Z,80.23
2022-11-29T23:36:11.343Z,80.18
2022-11-29T23:38:39.489Z,79.92
2022-11-29T23:41:07.599Z,79.82
2022-11-29T23:43:36.429Z,79.51
2022-11-29T23:46:07.249Z,79.42
2022-11-29T23:48:34.893Z,79.25
2022-11-29T23:51:02.695Z,79.16
2022-11-29T23:53:31.863Z,79.34
2022-11-29T23:56:00.406Z,79.43
2022-11-29T23:58:28.880Z,78.95
